MMPN/UPN METAR and TAF weather

Enter ICAO airport designator
Station Type Date Time Source
MMPN METAR 2020/02/19 13:40 UTC NOAA

MMPN 191340Z 00000KT 10SM SKC 12/10 A3020 RMK HZY


Station Type Date Time Source
MMPN Decoded METAR 2020/02/19 13:40 UTC NOAA

Uruapan / Gen Rayon, Mexico (MMPN) 19-24N 102-02W
Feb 19, 2020 - 08:40 AM EST / 2020.02.19 1340 UTC
Wind: Calm:0
Visibility: 10 mile(s):0
Sky conditions: clear
Temperature: 53 F (12 C)
Dew Point: 50 F (10 C)
Relative Humidity: 87%
Pressure (altimeter): 30.2 in. Hg (1022 hPa)
ob: MMPN 191340Z 00000KT 10SM SKC 12/10 A3020 RMK HZY
cycle: 13

Station Type Date Time Source
MMPN TAF 2020/02/19 06:14 UTC NOAA

TAF MMPN 190411Z 1906/2006 00000KT P6SM SKC
FM191800 20010KT P6SM SKC
FM200300 23005KT P6SM SKC

Example: see airport list